sensor_id;sensor_type;location;lat;lon;timestamp;pressure;altitude;pressure_sealevel;temperature;humidity
60583;BME280;46415;47.536;19.066;2023-07-20T00:03:09;-18855.94;;;23.18;83.81
60583;BME280;46415;47.536;19.066;2023-07-20T00:06:12;-18854.44;;;23.13;84.06
60583;BME280;46415;47.536;19.066;2023-07-20T00:09:15;-18852.00;;;23.04;85.03
60583;BME280;46415;47.536;19.066;2023-07-20T00:12:17;-18849.84;;;22.96;85.38
60583;BME280;46415;47.536;19.066;2023-07-20T00:15:20;-18847.69;;;22.88;86.36
60583;BME280;46415;47.536;19.066;2023-07-20T00:18:22;-18847.00;;;22.85;86.89
60583;BME280;46415;47.536;19.066;2023-07-20T00:21:25;-18846.47;;;22.83;87.87
60583;BME280;46415;47.536;19.066;2023-07-20T00:24:28;-18844.84;;;22.77;87.78
60583;BME280;46415;47.536;19.066;2023-07-20T00:27:30;-18843.47;;;22.72;87.91
60583;BME280;46415;47.536;19.066;2023-07-20T00:30:33;-18843.47;;;22.72;87.72
60583;BME280;46415;47.536;19.066;2023-07-20T00:33:36;-18843.34;;;22.71;87.93
60583;BME280;46415;47.536;19.066;2023-07-20T00:36:38;-18844.69;;;22.76;87.28
60583;BME280;46415;47.536;19.066;2023-07-20T00:39:41;-18843.75;;;22.73;88.28
60583;BME280;46415;47.536;19.066;2023-07-20T00:42:46;-18842.13;;;22.67;88.51
60583;BME280;46415;47.536;19.066;2023-07-20T00:45:48;-18840.50;;;22.61;89.27
60583;BME280;46415;47.536;19.066;2023-07-20T00:48:52;-18838.87;;;22.55;89.39
60583;BME280;46415;47.536;19.066;2023-07-20T00:51:55;-18837.53;;;22.50;90.42
60583;BME280;46415;47.536;19.066;2023-07-20T00:54:58;-18836.03;;;22.44;90.31
60583;BME280;46415;47.536;19.066;2023-07-20T00:58:00;-18836.84;;;22.47;90.11
60583;BME280;46415;47.536;19.066;2023-07-20T01:01:03;-18835.75;;;22.43;90.74
60583;BME280;46415;47.536;19.066;2023-07-20T01:04:05;-18834.53;;;22.38;90.82
60583;BME280;46415;47.536;19.066;2023-07-20T01:10:25;-18835.22;;;22.41;90.87
60583;BME280;46415;47.536;19.066;2023-07-20T01:13:32;-18834.81;;;22.39;91.60
60583;BME280;46415;47.536;19.066;2023-07-20T01:16:34;-18835.50;;;22.42;91.06
60583;BME280;46415;47.536;19.066;2023-07-20T01:19:37;-18836.56;;;22.46;90.82
60583;BME280;46415;47.536;19.066;2023-07-20T01:29:08;-18839.41;;;22.57;89.15
60583;BME280;46415;47.536;19.066;2023-07-20T01:32:14;-18839.56;;;22.57;88.98
60583;BME280;46415;47.536;19.066;2023-07-20T01:35:18;-18840.50;;;22.61;88.67
60583;BME280;46415;47.536;19.066;2023-07-20T01:38:21;-18839.81;;;22.58;88.98
60583;BME280;46415;47.536;19.066;2023-07-20T01:41:25;-18839.69;;;22.58;88.76
60583;BME280;46415;47.536;19.066;2023-07-20T01:44:28;-18839.81;;;22.58;89.13
60583;BME280;46415;47.536;19.066;2023-07-20T01:47:31;-18836.44;;;22.46;89.88
60583;BME280;46415;47.536;19.066;2023-07-20T01:50:33;-18834.41;;;22.38;90.73
60583;BME280;46415;47.536;19.066;2023-07-20T01:53:36;-18833.06;;;22.33;90.96
60583;BME280;46415;47.536;19.066;2023-07-20T01:56:39;-18831.97;;;22.29;92.06
60583;BME280;46415;47.536;19.066;2023-07-20T01:59:41;-18832.66;;;22.31;91.94
60583;BME280;46415;47.536;19.066;2023-07-20T02:02:44;-18834.41;;;22.38;90.84
60583;BME280;46415;47.536;19.066;2023-07-20T02:05:47;-18835.34;;;22.42;90.46
60583;BME280;46415;47.536;19.066;2023-07-20T02:08:50;-18834.41;;;22.38;90.39
60583;BME280;46415;47.536;19.066;2023-07-20T02:11:52;-18832.78;;;22.32;90.83
60583;BME280;46415;47.536;19.066;2023-07-20T02:14:55;-18832.09;;;22.29;91.41
60583;BME280;46415;47.536;19.066;2023-07-20T02:17:58;-18831.56;;;22.27;91.65
60583;BME280;46415;47.536;19.066;2023-07-20T02:21:01;-18831.84;;;22.28;91.33
60583;BME280;46415;47.536;19.066;2023-07-20T02:24:03;-18831.44;;;22.27;91.22
60583;BME280;46415;47.536;19.066;2023-07-20T02:27:06;-18831.97;;;22.29;91.73
60583;BME280;46415;47.536;19.066;2023-07-20T02:30:09;-18831.97;;;22.29;91.17
60583;BME280;46415;47.536;19.066;2023-07-20T02:33:12;-18831.56;;;22.27;92.16
60583;BME280;46415;47.536;19.066;2023-07-20T02:36:14;-18832.09;;;22.29;92.55
60583;BME280;46415;47.536;19.066;2023-07-20T02:39:20;-18831.84;;;22.28;92.71
60583;BME280;46415;47.536;19.066;2023-07-20T02:42:23;-18831.84;;;22.28;93.48
60583;BME280;46415;47.536;19.066;2023-07-20T02:45:29;-18837.53;;;22.50;92.10
60583;BME280;46415;47.536;19.066;2023-07-20T02:48:32;-18836.72;;;22.47;92.20
60583;BME280;46415;47.536;19.066;2023-07-20T02:51:35;-18836.97;;;22.48;93.16
60583;BME280;46415;47.536;19.066;2023-07-20T02:54:37;-18835.22;;;22.41;95.14
60583;BME280;46415;47.536;19.066;2023-07-20T02:57:40;-18835.09;;;22.40;93.66
60583;BME280;46415;47.536;19.066;2023-07-20T03:00:42;-18834.69;;;22.39;93.72
60583;BME280;46415;47.536;19.066;2023-07-20T03:03:46;-18830.47;;;22.23;94.82
60583;BME280;46415;47.536;19.066;2023-07-20T03:06:49;-18830.22;;;22.22;94.46
60583;BME280;46415;47.536;19.066;2023-07-20T03:09:52;-18831.69;;;22.28;89.30
60583;BME280;46415;47.536;19.066;2023-07-20T03:12:55;-18833.19;;;22.33;89.55
60583;BME280;46415;47.536;19.066;2023-07-20T03:15:58;-18832.09;;;22.29;88.45
60583;BME280;46415;47.536;19.066;2023-07-20T03:19:03;-18832.78;;;22.32;86.10
60583;BME280;46415;47.536;19.066;2023-07-20T03:22:06;-18831.97;;;22.29;86.90
60583;BME280;46415;47.536;19.066;2023-07-20T03:25:08;-18832.38;;;22.30;86.99
60583;BME280;46415;47.536;19.066;2023-07-20T03:28:11;-18832.09;;;22.29;87.35
60583;BME280;46415;47.536;19.066;2023-07-20T03:31:13;-18829.94;;;22.21;87.67
60583;BME280;46415;47.536;19.066;2023-07-20T03:34:17;-18829.41;;;22.19;88.63
60583;BME280;46415;47.536;19.066;2023-07-20T03:37:20;-18829.13;;;22.18;88.36
60583;BME280;46415;47.536;19.066;2023-07-20T03:40:23;-18832.09;;;22.29;86.73
60583;BME280;46415;47.536;19.066;2023-07-20T03:43:26;-18830.88;;;22.25;86.30
60583;BME280;46415;47.536;19.066;2023-07-20T03:46:29;-18831.84;;;22.28;85.85
60583;BME280;46415;47.536;19.066;2023-07-20T03:49:32;-18835.91;;;22.44;85.00
60583;BME280;46415;47.536;19.066;2023-07-20T03:52:34;-18834.69;;;22.39;85.20
60583;BME280;46415;47.536;19.066;2023-07-20T03:55:37;-18831.84;;;22.28;85.65
60583;BME280;46415;47.536;19.066;2023-07-20T03:58:39;-18830.06;;;22.22;86.23
60583;BME280;46415;47.536;19.066;2023-07-20T04:01:42;-18831.44;;;22.27;85.70
60583;BME280;46415;47.536;19.066;2023-07-20T04:04:45;-18830.34;;;22.23;85.95
60583;BME280;46415;47.536;19.066;2023-07-20T04:07:48;-18831.03;;;22.25;85.62
60583;BME280;46415;47.536;19.066;2023-07-20T04:10:50;-18832.25;;;22.30;85.43
60583;BME280;46415;47.536;19.066;2023-07-20T04:13:53;-18831.16;;;22.26;85.90
60583;BME280;46415;47.536;19.066;2023-07-20T04:16:56;-18832.38;;;22.30;85.80
60583;BME280;46415;47.536;19.066;2023-07-20T04:19:59;-18832.78;;;22.32;85.86
60583;BME280;46415;47.536;19.066;2023-07-20T04:23:02;-18832.66;;;22.31;85.61
60583;BME280;46415;47.536;19.066;2023-07-20T04:26:04;-18832.25;;;22.30;86.18
60583;BME280;46415;47.536;19.066;2023-07-20T04:29:09;-18832.25;;;22.30;85.22
60583;BME280;46415;47.536;19.066;2023-07-20T04:32:12;-18832.66;;;22.31;84.66
60583;BME280;46415;47.536;19.066;2023-07-20T04:35:16;-18834.41;;;22.38;84.69
60583;BME280;46415;47.536;19.066;2023-07-20T04:38:20;-18836.72;;;22.47;83.00
60583;BME280;46415;47.536;19.066;2023-07-20T04:41:23;-18838.75;;;22.54;82.61
60583;BME280;46415;47.536;19.066;2023-07-20T04:44:28;-18841.72;;;22.65;82.71
60583;BME280;46415;47.536;19.066;2023-07-20T04:47:31;-18846.06;;;22.82;81.58
60583;BME280;46415;47.536;19.066;2023-07-20T04:50:34;-18850.53;;;22.98;80.76
60583;BME280;46415;47.536;19.066;2023-07-20T04:53:37;-18855.41;;;23.16;79.11
60583;BME280;46415;47.536;19.066;2023-07-20T04:56:40;-18858.38;;;23.28;77.29
60583;BME280;46415;47.536;19.066;2023-07-20T04:59:44;-18863.66;;;23.47;76.30
60583;BME280;46415;47.536;19.066;2023-07-20T05:02:46;-18868.13;;;23.64;74.59
60583;BME280;46415;47.536;19.066;2023-07-20T05:05:51;-18869.19;;;23.68;73.46
60583;BME280;46415;47.536;19.066;2023-07-20T05:08:53;-18870.41;;;23.73;72.32
60583;BME280;46415;47.536;19.066;2023-07-20T05:11:56;-18873.25;;;23.83;72.08
60583;BME280;46415;47.536;19.066;2023-07-20T05:14:58;-18873.81;;;23.85;71.79
60583;BME280;46415;47.536;19.066;2023-07-20T05:18:01;-18875.84;;;23.93;70.71
60583;BME280;46415;47.536;19.066;2023-07-20T05:21:05;-18874.22;;;23.87;69.50
60583;BME280;46415;47.536;19.066;2023-07-20T05:24:08;-18876.25;;;23.94;68.89
60583;BME280;46415;47.536;19.066;2023-07-20T05:27:10;-18876.38;;;23.95;68.96
60583;BME280;46415;47.536;19.066;2023-07-20T05:30:13;-18878.81;;;24.04;67.90
60583;BME280;46415;47.536;19.066;2023-07-20T05:33:15;-18880.03;;;24.09;67.36
60583;BME280;46415;47.536;19.066;2023-07-20T05:36:18;-18880.84;;;24.12;66.61
60583;BME280;46415;47.536;19.066;2023-07-20T05:39:20;-18883.81;;;24.23;65.26
60583;BME280;46415;47.536;19.066;2023-07-20T05:42:23;-18888.28;;;24.39;63.91
60583;BME280;46415;47.536;19.066;2023-07-20T05:45:26;-18890.31;;;24.47;64.61
60583;BME280;46415;47.536;19.066;2023-07-20T05:48:28;-18893.28;;;24.58;62.86
60583;BME280;46415;47.536;19.066;2023-07-20T05:51:31;-18897.06;;;24.72;61.83
60583;BME280;46415;47.536;19.066;2023-07-20T05:54:37;-18899.22;;;24.80;62.40
60583;BME280;46415;47.536;19.066;2023-07-20T05:57:39;-18901.09;;;24.88;62.15
60583;BME280;46415;47.536;19.066;2023-07-20T06:00:47;-18905.56;;;25.04;61.35
60583;BME280;46415;47.536;19.066;2023-07-20T06:03:50;-18909.75;;;25.20;60.24
60583;BME280;46415;47.536;19.066;2023-07-20T06:06:52;-18914.22;;;25.37;60.03
60583;BME280;46415;47.536;19.066;2023-07-20T06:09:55;-18912.59;;;25.31;59.06
60583;BME280;46415;47.536;19.066;2023-07-20T06:12:57;-18913.81;;;25.35;59.24
60583;BME280;46415;47.536;19.066;2023-07-20T06:16:00;-18913.94;;;25.36;57.31
60583;BME280;46415;47.536;19.066;2023-07-20T06:19:02;-18910.03;;;25.21;58.30
60583;BME280;46415;47.536;19.066;2023-07-20T06:22:05;-18911.38;;;25.26;57.64
60583;BME280;46415;47.536;19.066;2023-07-20T06:25:08;-18910.28;;;25.22;58.22
60583;BME280;46415;47.536;19.066;2023-07-20T06:28:11;-18908.41;;;25.15;58.77
60583;BME280;46415;47.536;19.066;2023-07-20T06:31:13;-18907.31;;;25.11;58.73
60583;BME280;46415;47.536;19.066;2023-07-20T06:34:16;-18905.44;;;25.04;59.22
60583;BME280;46415;47.536;19.066;2023-07-20T06:37:19;-18907.59;;;25.12;59.16
60583;BME280;46415;47.536;19.066;2023-07-20T06:40:22;-18907.31;;;25.11;59.76
60583;BME280;46415;47.536;19.066;2023-07-20T06:43:28;-18913.53;;;25.34;60.07
60583;BME280;46415;47.536;19.066;2023-07-20T06:46:33;-18910.84;;;25.24;58.91
60583;BME280;46415;47.536;19.066;2023-07-20T06:49:36;-18913.41;;;25.34;58.33
60583;BME280;46415;47.536;19.066;2023-07-20T06:52:38;-18911.91;;;25.28;57.89
60583;BME280;46415;47.536;19.066;2023-07-20T06:55:42;-18916.91;;;25.47;58.21
60583;BME280;46415;47.536;19.066;2023-07-20T06:58:44;-18919.06;;;25.55;56.81
60583;BME280;46415;47.536;19.066;2023-07-20T07:01:47;-18915.16;;;25.40;56.94
60583;BME280;46415;47.536;19.066;2023-07-20T07:04:50;-18913.94;;;25.36;55.58
60583;BME280;46415;47.536;19.066;2023-07-20T07:08:02;-18914.22;;;25.37;55.84
60583;BME280;46415;47.536;19.066;2023-07-20T07:11:05;-18918.94;;;25.54;56.03
60583;BME280;46415;47.536;19.066;2023-07-20T07:14:07;-18923.25;;;25.71;54.55
60583;BME280;46415;47.536;19.066;2023-07-20T07:17:10;-18927.31;;;25.86;53.26
60583;BME280;46415;47.536;19.066;2023-07-20T07:20:13;-18927.03;;;25.85;51.74
60583;BME280;46415;47.536;19.066;2023-07-20T07:23:23;-18932.16;;;26.04;52.98
60583;BME280;46415;47.536;19.066;2023-07-20T07:26:25;-18931.34;;;26.01;51.65
60583;BME280;46415;47.536;19.066;2023-07-20T07:29:28;-18931.09;;;26.00;51.17
60583;BME280;46415;47.536;19.066;2023-07-20T07:32:31;-18937.56;;;26.24;51.42
60583;BME280;46415;47.536;19.066;2023-07-20T07:35:33;-18938.50;;;26.28;51.26
60583;BME280;46415;47.536;19.066;2023-07-20T07:38:36;-18941.06;;;26.37;50.42
60583;BME280;46415;47.536;19.066;2023-07-20T07:41:41;-18947.41;;;26.61;48.58
60583;BME280;46415;47.536;19.066;2023-07-20T07:44:44;-18953.75;;;26.85;48.69
60583;BME280;46415;47.536;19.066;2023-07-20T07:47:47;-18953.75;;;26.85;46.83
60583;BME280;46415;47.536;19.066;2023-07-20T07:50:49;-18959.13;;;27.05;45.83
60583;BME280;46415;47.536;19.066;2023-07-20T07:53:52;-18968.16;;;27.39;45.21
60583;BME280;46415;47.536;19.066;2023-07-20T07:56:55;-18975.19;;;27.66;45.19
60583;BME280;46415;47.536;19.066;2023-07-20T07:59:58;-18990.53;;;28.23;44.62
60583;BME280;46415;47.536;19.066;2023-07-20T08:03:00;-18997.53;;;28.50;43.63
60583;BME280;46415;47.536;19.066;2023-07-20T08:06:03;-19010.84;;;29.00;42.23
60583;BME280;46415;47.536;19.066;2023-07-20T08:09:06;-19006.69;;;28.84;41.01
60583;BME280;46415;47.536;19.066;2023-07-20T08:12:09;-19007.63;;;28.88;40.89
60583;BME280;46415;47.536;19.066;2023-07-20T08:15:11;-19007.34;;;28.87;41.41
60583;BME280;46415;47.536;19.066;2023-07-20T08:18:17;-19008.03;;;28.89;40.62
60583;BME280;46415;47.536;19.066;2023-07-20T08:21:19;-19021.06;;;29.38;39.64
60583;BME280;46415;47.536;19.066;2023-07-20T08:24:22;-19034.63;;;29.89;38.53
60583;BME280;46415;47.536;19.066;2023-07-20T08:27:24;-19027.66;;;29.63;38.68
60583;BME280;46415;47.536;19.066;2023-07-20T08:30:27;-19032.50;;;29.81;38.37
60583;BME280;46415;47.536;19.066;2023-07-20T08:33:41;-19039.88;;;30.09;38.23
60583;BME280;46415;47.536;19.066;2023-07-20T08:36:44;-19033.97;;;29.87;38.34
60583;BME280;46415;47.536;19.066;2023-07-20T08:39:46;-19029.53;;;29.70;37.56
60583;BME280;46415;47.536;19.066;2023-07-20T08:42:49;-19020.25;;;29.35;38.87
60583;BME280;46415;47.536;19.066;2023-07-20T08:45:53;-19018.09;;;29.27;39.69
60583;BME280;46415;47.536;19.066;2023-07-20T08:48:57;-19012.31;;;29.05;39.31
60583;BME280;46415;47.536;19.066;2023-07-20T08:52:00;-19004.00;;;28.74;38.92
60583;BME280;46415;47.536;19.066;2023-07-20T08:55:03;-18997.94;;;28.51;38.92
60583;BME280;46415;47.536;19.066;2023-07-20T08:58:06;-18984.19;;;27.99;38.63
60583;BME280;46415;47.536;19.066;2023-07-20T09:01:10;-18976.00;;;27.69;39.77
60583;BME280;46415;47.536;19.066;2023-07-20T09:04:13;-18976.66;;;27.71;39.23
60583;BME280;46415;47.536;19.066;2023-07-20T09:07:16;-18979.63;;;27.82;39.61
60583;BME280;46415;47.536;19.066;2023-07-20T09:10:20;-18982.84;;;27.94;38.91
60583;BME280;46415;47.536;19.066;2023-07-20T09:13:24;-18985.94;;;28.06;39.23
60583;BME280;46415;47.536;19.066;2023-07-20T09:16:28;-18984.06;;;27.99;40.24
60583;BME280;46415;47.536;19.066;2023-07-20T09:19:32;-18988.66;;;28.16;39.17
60583;BME280;46415;47.536;19.066;2023-07-20T09:22:39;-18995.50;;;28.42;39.16
60583;BME280;46415;47.536;19.066;2023-07-20T09:25:45;-18996.44;;;28.46;40.46
60583;BME280;46415;47.536;19.066;2023-07-20T09:28:52;-18997.94;;;28.51;39.70
60583;BME280;46415;47.536;19.066;2023-07-20T09:32:03;-19004.94;;;28.77;39.67
60583;BME280;46415;47.536;19.066;2023-07-20T09:35:06;-19015.97;;;29.19;39.43
60583;BME280;46415;47.536;19.066;2023-07-20T09:38:12;-19031.81;;;29.79;38.71
60583;BME280;46415;47.536;19.066;2023-07-20T09:41:20;-19023.91;;;29.49;37.75
60583;BME280;46415;47.536;19.066;2023-07-20T09:44:27;-19008.28;;;28.90;39.61
60583;BME280;46415;47.536;19.066;2023-07-20T09:47:33;-19013.81;;;29.11;38.71
60583;BME280;46415;47.536;19.066;2023-07-20T09:50:56;-19007.88;;;28.89;39.07
60583;BME280;46415;47.536;19.066;2023-07-20T09:53:59;-19017.56;;;29.25;39.54
60583;BME280;46415;47.536;19.066;2023-07-20T09:57:02;-19018.91;;;29.30;37.55
60583;BME280;46415;47.536;19.066;2023-07-20T10:00:06;-19028.47;;;29.66;37.89
60583;BME280;46415;47.536;19.066;2023-07-20T10:03:22;-19036.66;;;29.97;36.70
60583;BME280;46415;47.536;19.066;2023-07-20T10:06:27;-19045.25;;;30.29;36.55
60583;BME280;46415;47.536;19.066;2023-07-20T10:09:31;-19056.66;;;30.72;35.86
60583;BME280;46415;47.536;19.066;2023-07-20T10:12:35;-19047.41;;;30.37;36.47
60583;BME280;46415;47.536;19.066;2023-07-20T10:15:40;-19052.78;;;30.58;36.88
60583;BME280;46415;47.536;19.066;2023-07-20T10:19:05;-19053.84;;;30.62;37.08
60583;BME280;46415;47.536;19.066;2023-07-20T10:22:20;-19046.47;;;30.34;37.50
60583;BME280;46415;47.536;19.066;2023-07-20T10:25:27;-19044.72;;;30.27;37.31
60583;BME280;46415;47.536;19.066;2023-07-20T10:28:30;-19042.56;;;30.19;36.78
60583;BME280;46415;47.536;19.066;2023-07-20T10:31:33;-19044.97;;;30.28;35.75
60583;BME280;46415;47.536;19.066;2023-07-20T10:34:37;-19031.81;;;29.79;36.00
60583;BME280;46415;47.536;19.066;2023-07-20T10:37:46;-19032.22;;;29.80;36.77
60583;BME280;46415;47.536;19.066;2023-07-20T10:40:53;-19031.00;;;29.76;36.60
60583;BME280;46415;47.536;19.066;2023-07-20T10:43:57;-19026.31;;;29.58;36.57
60583;BME280;46415;47.536;19.066;2023-07-20T10:47:01;-19015.81;;;29.18;37.71
60583;BME280;46415;47.536;19.066;2023-07-20T10:50:05;-19017.03;;;29.23;37.37
60583;BME280;46415;47.536;19.066;2023-07-20T10:53:15;-19029.13;;;29.69;35.32
60583;BME280;46415;47.536;19.066;2023-07-20T10:56:21;-19027.25;;;29.61;34.89
60583;BME280;46415;47.536;19.066;2023-07-20T11:05:46;-19021.88;;;29.41;36.80
60583;BME280;46415;47.536;19.066;2023-07-20T11:08:49;-19021.88;;;29.41;35.64
60583;BME280;46415;47.536;19.066;2023-07-20T11:12:08;-19019.19;;;29.31;36.00
60583;BME280;46415;47.536;19.066;2023-07-20T11:15:11;-19026.03;;;29.57;35.62
60583;BME280;46415;47.536;19.066;2023-07-20T11:18:14;-19020.66;;;29.37;36.07
60583;BME280;46415;47.536;19.066;2023-07-20T11:21:17;-19010.31;;;28.98;36.73
60583;BME280;46415;47.536;19.066;2023-07-20T11:24:20;-19000.22;;;28.60;37.74
60583;BME280;46415;47.536;19.066;2023-07-20T11:27:22;-19005.75;;;28.80;37.88
60583;BME280;46415;47.536;19.066;2023-07-20T11:30:25;-19013.66;;;29.10;37.71
60583;BME280;46415;47.536;19.066;2023-07-20T11:33:28;-19026.31;;;29.58;36.02
60583;BME280;46415;47.536;19.066;2023-07-20T11:36:30;-19029.25;;;29.69;36.41
60583;BME280;46415;47.536;19.066;2023-07-20T11:39:36;-19034.09;;;29.87;35.59
60583;BME280;46415;47.536;19.066;2023-07-20T11:42:39;-19041.22;;;30.14;35.05
60583;BME280;46415;47.536;19.066;2023-07-20T11:45:44;-19047.28;;;30.37;33.88
60583;BME280;46415;47.536;19.066;2023-07-20T11:48:47;-19048.59;;;30.42;33.60
60583;BME280;46415;47.536;19.066;2023-07-20T11:51:50;-19042.16;;;30.18;34.71
60583;BME280;46415;47.536;19.066;2023-07-20T11:54:53;-19036.66;;;29.97;34.10
60583;BME280;46415;47.536;19.066;2023-07-20T11:58:02;-19041.22;;;30.14;34.28
60583;BME280;46415;47.536;19.066;2023-07-20T12:01:05;-19052.78;;;30.58;33.88
60583;BME280;46415;47.536;19.066;2023-07-20T12:04:08;-19045.53;;;30.30;34.02
60583;BME280;46415;47.536;19.066;2023-07-20T12:07:10;-19047.69;;;30.38;34.40
60583;BME280;46415;47.536;19.066;2023-07-20T12:10:14;-19056.00;;;30.70;33.83
60583;BME280;46415;47.536;19.066;2023-07-20T12:13:17;-19054.66;;;30.65;34.33
60583;BME280;46415;47.536;19.066;2023-07-20T12:16:19;-19047.94;;;30.39;33.43
60583;BME280;46415;47.536;19.066;2023-07-20T12:19:24;-19052.50;;;30.57;33.54
60583;BME280;46415;47.536;19.066;2023-07-20T12:22:27;-19053.59;;;30.61;33.79
60583;BME280;46415;47.536;19.066;2023-07-20T12:25:33;-19046.88;;;30.35;33.61
60583;BME280;46415;47.536;19.066;2023-07-20T12:28:39;-19048.06;;;30.40;33.08
60583;BME280;46415;47.536;19.066;2023-07-20T12:31:45;-19056.81;;;30.73;32.92
60583;BME280;46415;47.536;19.066;2023-07-20T12:34:48;-19050.63;;;30.50;32.26
60583;BME280;46415;47.536;19.066;2023-07-20T12:37:50;-19050.22;;;30.48;30.86
60583;BME280;46415;47.536;19.066;2023-07-20T12:40:54;-19057.34;;;30.75;30.29
60583;BME280;46415;47.536;19.066;2023-07-20T12:43:57;-19072.78;;;31.33;30.39
60583;BME280;46415;47.536;19.066;2023-07-20T12:47:00;-19072.63;;;31.33;30.48
60583;BME280;46415;47.536;19.066;2023-07-20T12:50:03;-19077.34;;;31.50;29.33
60583;BME280;46415;47.536;19.066;2023-07-20T12:53:09;-19073.31;;;31.35;28.89
60583;BME280;46415;47.536;19.066;2023-07-20T12:56:11;-19064.84;;;31.03;29.52
60583;BME280;46415;47.536;19.066;2023-07-20T12:59:17;-19059.47;;;30.83;30.25
60583;BME280;46415;47.536;19.066;2023-07-20T13:02:19;-19056.94;;;30.73;30.62
60583;BME280;46415;47.536;19.066;2023-07-20T13:05:21;-19061.38;;;30.90;30.75
60583;BME280;46415;47.536;19.066;2023-07-20T13:08:44;-19061.09;;;30.89;30.74
60583;BME280;46415;47.536;19.066;2023-07-20T13:11:46;-19064.59;;;31.02;30.35
60583;BME280;46415;47.536;19.066;2023-07-20T13:14:49;-19060.97;;;30.89;30.11
60583;BME280;46415;47.536;19.066;2023-07-20T13:17:52;-19057.34;;;30.75;29.39
60583;BME280;46415;47.536;19.066;2023-07-20T13:20:54;-19058.56;;;30.79;30.27
60583;BME280;46415;47.536;19.066;2023-07-20T13:23:57;-19059.22;;;30.82;30.39
60583;BME280;46415;47.536;19.066;2023-07-20T13:26:59;-19057.88;;;30.77;30.50
60583;BME280;46415;47.536;19.066;2023-07-20T13:30:02;-19058.00;;;30.77;30.11
60583;BME280;46415;47.536;19.066;2023-07-20T13:33:11;-19057.06;;;30.74;30.17
60583;BME280;46415;47.536;19.066;2023-07-20T13:36:19;-19050.38;;;30.49;30.72
60583;BME280;46415;47.536;19.066;2023-07-20T13:39:24;-19049.41;;;30.45;30.15
60583;BME280;46415;47.536;19.066;2023-07-20T13:42:29;-19052.78;;;30.58;30.30
60583;BME280;46415;47.536;19.066;2023-07-20T13:45:31;-19052.09;;;30.55;30.64
60583;BME280;46415;47.536;19.066;2023-07-20T13:48:34;-19056.66;;;30.72;30.74
60583;BME280;46415;47.536;19.066;2023-07-20T13:51:38;-19062.72;;;30.95;30.48
60583;BME280;46415;47.536;19.066;2023-07-20T13:54:43;-19063.09;;;30.97;29.97
60583;BME280;46415;47.536;19.066;2023-07-20T13:57:49;-19067.41;;;31.13;29.89
60583;BME280;46415;47.536;19.066;2023-07-20T14:00:53;-19071.03;;;31.27;29.42
60583;BME280;46415;47.536;19.066;2023-07-20T14:03:55;-19074.78;;;31.41;29.62
60583;BME280;46415;47.536;19.066;2023-07-20T14:06:58;-19071.56;;;31.29;29.80
60583;BME280;46415;47.536;19.066;2023-07-20T14:10:01;-19071.28;;;31.28;29.97
60583;BME280;46415;47.536;19.066;2023-07-20T14:13:06;-19075.19;;;31.42;29.59
60583;BME280;46415;47.536;19.066;2023-07-20T14:16:09;-19069.41;;;31.20;29.28
60583;BME280;46415;47.536;19.066;2023-07-20T14:19:12;-19067.53;;;31.13;30.08
60583;BME280;46415;47.536;19.066;2023-07-20T14:22:14;-19065.94;;;31.07;30.25
60583;BME280;46415;47.536;19.066;2023-07-20T14:25:17;-19078.13;;;31.53;30.29
60583;BME280;46415;47.536;19.066;2023-07-20T14:28:21;-19088.84;;;31.94;29.98
60583;BME280;46415;47.536;19.066;2023-07-20T14:31:24;-19089.00;;;31.94;29.68
60583;BME280;46415;47.536;19.066;2023-07-20T14:34:27;-19087.53;;;31.89;29.96
60583;BME280;46415;47.536;19.066;2023-07-20T14:37:30;-19092.88;;;32.09;28.99
60583;BME280;46415;47.536;19.066;2023-07-20T14:40:32;-19093.00;;;32.10;28.75
60583;BME280;46415;47.536;19.066;2023-07-20T14:43:35;-19088.19;;;31.91;28.95
60583;BME280;46415;47.536;19.066;2023-07-20T14:46:38;-19095.16;;;32.18;28.87
60583;BME280;46415;47.536;19.066;2023-07-20T14:49:40;-19103.47;;;32.49;28.39
60583;BME280;46415;47.536;19.066;2023-07-20T14:52:43;-19108.03;;;32.66;28.17
60583;BME280;46415;47.536;19.066;2023-07-20T14:55:48;-19121.13;;;33.16;27.76
60583;BME280;46415;47.536;19.066;2023-07-20T14:58:51;-19133.97;;;33.65;27.07
60583;BME280;46415;47.536;19.066;2023-07-20T15:01:54;-19127.44;;;33.40;26.88
60583;BME280;46415;47.536;19.066;2023-07-20T15:04:57;-19137.47;;;33.78;27.25
60583;BME280;46415;47.536;19.066;2023-07-20T15:08:00;-19177.00;;;35.28;25.30
60583;BME280;46415;47.536;19.066;2023-07-20T15:11:02;-19207.03;;;36.41;23.58
60583;BME280;46415;47.536;19.066;2023-07-20T15:14:05;-19232.47;;;37.38;21.72
60583;BME280;46415;47.536;19.066;2023-07-20T15:17:08;-19241.25;;;37.72;21.40
60583;BME280;46415;47.536;19.066;2023-07-20T15:20:11;-19288.44;;;39.51;20.36
60583;BME280;46415;47.536;19.066;2023-07-20T15:23:14;-19324.75;;;40.90;19.18
60583;BME280;46415;47.536;19.066;2023-07-20T15:26:17;-19304.47;;;40.13;19.02
60583;BME280;46415;47.536;19.066;2023-07-20T15:29:20;-19277.00;;;39.08;18.99
60583;BME280;46415;47.536;19.066;2023-07-20T15:32:26;-19309.66;;;40.32;18.37
60583;BME280;46415;47.536;19.066;2023-07-20T15:35:28;-19288.81;;;39.53;18.77
60583;BME280;46415;47.536;19.066;2023-07-20T15:38:31;-19308.59;;;40.28;18.32
60583;BME280;46415;47.536;19.066;2023-07-20T15:41:33;-19339.47;;;41.46;17.52
60583;BME280;46415;47.536;19.066;2023-07-20T15:44:37;-19327.28;;;41.00;17.68
60583;BME280;46415;47.536;19.066;2023-07-20T15:47:39;-19334.03;;;41.26;18.10
60583;BME280;46415;47.536;19.066;2023-07-20T15:50:42;-19352.69;;;41.97;17.63
60583;BME280;46415;47.536;19.066;2023-07-20T15:53:45;-19367.78;;;42.55;16.85
60583;BME280;46415;47.536;19.066;2023-07-20T15:56:49;-19370.28;;;42.64;16.58
60583;BME280;46415;47.536;19.066;2023-07-20T15:59:52;-19392.59;;;43.50;16.28
60583;BME280;46415;47.536;19.066;2023-07-20T16:02:58;-19388.78;;;43.35;16.68
60583;BME280;46415;47.536;19.066;2023-07-20T16:06:01;-19358.25;;;42.18;16.92